WXM80 ListenWXM80 Stop

You find our weather info also at:

UK Metoffice

WeatherCloud

Weather Underground

Northeastern Weather Network

AWEKAS

Citizen Weather Observer Program (CWOP)

HAMweather, WeatherForYou, PWS Weather


Weather Underground History page Text

Daily Summary for March 17, 2017 Units:  Both    English   Metric
« Previous Day
Next Day »
Daily Weekly Monthly Yearly Custom
  High: Low: Average:
Temperature: 45.6 °F /  7.6 °C 30.7 °F /  -0.7 °C 37.2 °F /  2.9 °C
Dew Point: 23.0 °F /  -5 °C 17.3 °F /  -8.2 °C 20.4 °F /  -6.4 °C
Humidity: 67 % 34 % 52 %
Wind Speed: 10.0 mph /  16.1 km/h - 4.4 mph /  7.1 km/h
Wind Gust: 18.4 mph /  29.6 km/h - -
Wind:- - West
Pressure: 30.23 in /  1023.6 hPa 30.08 in /  1018.5 hPa -
Precipitation: 0.00 in /  0 mm    
Historical Graphs
 
 
Tabular Data for March 17, 2017
Time Temperature Dew Point Pressure Wind Wind Speed Wind Gust Humidity Rainfall Rate (Hourly)
00:02 32.7 °F /  0.4 °C 17.9 °F /  -7.8 °C 30.08 in /  1018.5 hPa WNW 6.5 mph /  10.5 km/h 10.0 mph /  16.1 km/h 54 % 0.00 in /  0 mm
00:07 32.7 °F /  0.4 °C 17.9 °F /  -7.8 °C 30.08 in /  1018.5 hPa North 2.9 mph /  4.7 km/h 6.9 mph /  11.1 km/h 54 % 0.00 in /  0 mm
00:13 32.6 °F /  0.3 °C 17.3 °F /  -8.2 °C 30.08 in /  1018.5 hPa NW 5.7 mph /  9.2 km/h 10.4 mph /  16.7 km/h 53 % 0.00 in /  0 mm
00:18 32.6 °F /  0.3 °C 17.3 °F /  -8.2 °C 30.08 in /  1018.5 hPa WNW 5.0 mph /  8 km/h 10.0 mph /  16.1 km/h 53 % 0.00 in /  0 mm
00:23 32.6 °F /  0.3 °C 17.8 °F /  -7.9 °C 30.08 in /  1018.5 hPa WNW 5.0 mph /  8 km/h 9.0 mph /  14.5 km/h 54 % 0.00 in /  0 mm
00:28 32.5 °F /  0.3 °C 17.7 °F /  -7.9 °C 30.08 in /  1018.5 hPa WNW 6.0 mph /  9.7 km/h 9.0 mph /  14.5 km/h 54 % 0.00 in /  0 mm
00:33 32.5 °F /  0.3 °C 17.7 °F /  -7.9 °C 30.08 in /  1018.5 hPa WNW 6.0 mph /  9.7 km/h 10.0 mph /  16.1 km/h 54 % 0.00 in /  0 mm
00:38 32.6 °F /  0.3 °C 17.8 °F /  -7.9 °C 30.08 in /  1018.5 hPa NW 2.9 mph /  4.7 km/h 10.4 mph /  16.7 km/h 54 % 0.00 in /  0 mm
00:43 32.5 °F /  0.3 °C 17.7 °F /  -7.9 °C 30.08 in /  1018.5 hPa WNW 6.0 mph /  9.7 km/h 9.0 mph /  14.5 km/h 54 % 0.00 in /  0 mm
00:48 32.5 °F /  0.3 °C 18.1 °F /  -7.7 °C 30.08 in /  1018.5 hPa North 3.2 mph /  5.1 km/h 6.0 mph /  9.7 km/h 55 % 0.00 in /  0 mm
00:53 32.4 °F /  0.2 °C 18.0 °F /  -7.8 °C 30.08 in /  1018.5 hPa WNW 6.0 mph /  9.7 km/h 13.0 mph /  20.9 km/h 55 % 0.00 in /  0 mm
00:58 32.4 °F /  0.2 °C 18.0 °F /  -7.8 °C 30.08 in /  1018.5 hPa West 2.3 mph /  3.7 km/h 5.0 mph /  8 km/h 55 % 0.00 in /  0 mm
01:03 32.3 °F /  0.2 °C 17.9 °F /  -7.8 °C 30.08 in /  1018.5 hPa NW 4.5 mph /  7.2 km/h 11.5 mph /  18.5 km/h 55 % 0.00 in /  0 mm
01:08 32.3 °F /  0.2 °C 17.9 °F /  -7.8 °C 30.09 in /  1018.8 hPa NW 2.8 mph /  4.5 km/h 5.8 mph /  9.3 km/h 55 % 0.00 in /  0 mm
01:13 32.3 °F /  0.2 °C 18.3 °F /  -7.6 °C 30.09 in /  1018.8 hPa WSW 2.5 mph /  4 km/h 3.5 mph /  5.6 km/h 56 % 0.00 in /  0 mm
01:18 32.2 °F /  0.1 °C 18.2 °F /  -7.7 °C 30.09 in /  1018.8 hPa WNW 2.9 mph /  4.7 km/h 6.9 mph /  11.1 km/h 56 % 0.00 in /  0 mm
01:23 32.2 °F /  0.1 °C 18.7 °F /  -7.4 °C 30.10 in /  1019.2 hPa WSW 2.1 mph /  3.4 km/h 6.0 mph /  9.7 km/h 57 % 0.00 in /  0 mm
01:28 32.2 °F /  0.1 °C 18.7 °F /  -7.4 °C 30.10 in /  1019.2 hPa WSW 5.3 mph /  8.5 km/h 8.1 mph /  13 km/h 57 % 0.00 in /  0 mm
01:33 32.3 °F /  0.2 °C 18.8 °F /  -7.3 °C 30.10 in /  1019.2 hPa WNW 5.0 mph /  8 km/h 8.1 mph /  13 km/h 57 % 0.00 in /  0 mm
01:38 32.2 °F /  0.1 °C 19.1 °F /  -7.2 °C 30.09 in /  1018.8 hPa WNW 4.6 mph /  7.4 km/h 8.1 mph /  13 km/h 58 % 0.00 in /  0 mm
01:43 32.2 °F /  0.1 °C 18.7 °F /  -7.4 °C 30.10 in /  1019.2 hPa WSW 3.4 mph /  5.5 km/h 5.8 mph /  9.3 km/h 57 % 0.00 in /  0 mm
01:48 32.2 °F /  0.1 °C 19.1 °F /  -7.2 °C 30.10 in /  1019.2 hPa WNW 1.8 mph /  2.9 km/h 8.1 mph /  13 km/h 58 % 0.00 in /  0 mm
01:53 32.2 °F /  0.1 °C 19.5 °F /  -6.9 °C 30.10 in /  1019.2 hPa WSW 4.3 mph /  6.9 km/h 9.2 mph /  14.8 km/h 59 % 0.00 in /  0 mm
01:58 32.2 °F /  0.1 °C 19.5 °F /  -6.9 °C 30.10 in /  1019.2 hPa West 4.7 mph /  7.6 km/h 6.9 mph /  11.1 km/h 59 % 0.00 in /  0 mm
02:04 32.1 °F /  0.1 °C 19.4 °F /  -7 °C 30.10 in /  1019.2 hPa WNW 2.4 mph /  3.9 km/h 6.9 mph /  11.1 km/h 59 % 0.00 in /  0 mm
02:08 32.1 °F /  0.1 °C 19.4 °F /  -7 °C 30.10 in /  1019.2 hPa WNW 3.9 mph /  6.3 km/h 8.1 mph /  13 km/h 59 % 0.00 in /  0 mm
02:14 32.1 °F /  0.1 °C 19.4 °F /  -7 °C 30.11 in /  1019.5 hPa WSW 1.8 mph /  2.9 km/h 14.0 mph /  22.5 km/h 59 % 0.00 in /  0 mm
02:19 32.2 °F /  0.1 °C 19.5 °F /  -6.9 °C 30.10 in /  1019.2 hPa WSW 6.3 mph /  10.1 km/h 7.0 mph /  11.3 km/h 59 % 0.00 in /  0 mm
02:24 32.2 °F /  0.1 °C 19.9 °F /  -6.7 °C 30.10 in /  1019.2 hPa West 3.0 mph /  4.8 km/h 8.1 mph /  13 km/h 60 % 0.00 in /  0 mm
02:29 32.2 °F /  0.1 °C 20.2 °F /  -6.6 °C 30.10 in /  1019.2 hPa NW 4.6 mph /  7.4 km/h 13.8 mph /  22.2 km/h 61 % 0.00 in /  0 mm
02:34 32.1 °F /  0.1 °C 20.2 °F /  -6.6 °C 30.11 in /  1019.5 hPa West 4.3 mph /  6.9 km/h 11.5 mph /  18.5 km/h 61 % 0.00 in /  0 mm
02:39 32.1 °F /  0.1 °C 20.2 °F /  -6.6 °C 30.10 in /  1019.2 hPa NW 6.8 mph /  10.9 km/h 12.7 mph /  20.4 km/h 61 % 0.00 in /  0 mm
02:44 32.1 °F /  0.1 °C 20.2 °F /  -6.6 °C 30.11 in /  1019.5 hPa West 1.1 mph /  1.8 km/h 6.9 mph /  11.1 km/h 61 % 0.00 in /  0 mm
02:49 32.1 °F /  0.1 °C 20.2 °F /  -6.6 °C 30.11 in /  1019.5 hPa WSW 2.3 mph /  3.7 km/h 9.2 mph /  14.8 km/h 61 % 0.00 in /  0 mm
02:54 32.1 °F /  0.1 °C 20.2 °F /  -6.6 °C 30.10 in /  1019.2 hPa WSW 3.8 mph /  6.1 km/h 8.1 mph /  13 km/h 61 % 0.00 in /  0 mm
02:59 32.1 °F /  0.1 °C 20.2 °F /  -6.6 °C 30.10 in /  1019.2 hPa West 5.1 mph /  8.2 km/h 13.8 mph /  22.2 km/h 61 % 0.00 in /  0 mm
03:04 32.1 °F /  0.1 °C 20.2 °F /  -6.6 °C 30.11 in /  1019.5 hPa West 4.0 mph /  6.4 km/h 8.1 mph /  13 km/h 61 % 0.00 in /  0 mm
03:09 32.1 °F /  0.1 °C 20.2 °F /  -6.6 °C 30.11 in /  1019.5 hPa NW 6.1 mph /  9.8 km/h 9.0 mph /  14.5 km/h 61 % 0.00 in /  0 mm
03:14 32.1 °F /  0.1 °C 19.8 °F /  -6.8 °C 30.10 in /  1019.2 hPa WNW 3.0 mph /  4.8 km/h 9.2 mph /  14.8 km/h 60 % 0.00 in /  0 mm
03:19 32.1 °F /  0.1 °C 20.2 °F /  -6.6 °C 30.11 in /  1019.5 hPa WNW 6.7 mph /  10.8 km/h 10.4 mph /  16.7 km/h 61 % 0.00 in /  0 mm
03:24 32.0 °F /  0 °C 20.1 °F /  -6.6 °C 30.11 in /  1019.5 hPa SW 4.0 mph /  6.4 km/h 8.0 mph /  12.9 km/h 61 % 0.00 in /  0 mm
03:29 32.0 °F /  0 °C 20.1 °F /  -6.6 °C 30.11 in /  1019.5 hPa NW 3.4 mph /  5.5 km/h 8.1 mph /  13 km/h 61 % 0.00 in /  0 mm
03:34 32.0 °F /  0 °C 19.7 °F /  -6.8 °C 30.11 in /  1019.5 hPa WNW 4.5 mph /  7.2 km/h 6.0 mph /  9.7 km/h 60 % 0.00 in /  0 mm
03:39 32.0 °F /  0 °C 19.7 °F /  -6.8 °C 30.11 in /  1019.5 hPa West 7.9 mph /  12.7 km/h 15.0 mph /  24.1 km/h 60 % 0.00 in /  0 mm
03:45 32.0 °F /  0 °C 20.1 °F /  -6.6 °C 30.11 in /  1019.5 hPa West 7.3 mph /  11.7 km/h 12.7 mph /  20.4 km/h 61 % 0.00 in /  0 mm
03:50 32.0 °F /  0 °C 20.1 °F /  -6.6 °C 30.11 in /  1019.5 hPa WNW 4.3 mph /  6.9 km/h 12.7 mph /  20.4 km/h 61 % 0.00 in /  0 mm
03:55 32.0 °F /  0 °C 20.4 °F /  -6.4 °C 30.11 in /  1019.5 hPa West 5.4 mph /  8.7 km/h 11.0 mph /  17.7 km/h 62 % 0.00 in /  0 mm
04:00 32.0 °F /  0 °C 20.4 °F /  -6.4 °C 30.11 in /  1019.5 hPa SW 2.7 mph /  4.3 km/h 12.7 mph /  20.4 km/h 62 % 0.00 in /  0 mm
04:05 31.9 °F /  -0.1 °C 20.7 °F /  -6.3 °C 30.11 in /  1019.5 hPa SW 7.0 mph /  11.3 km/h 11.5 mph /  18.5 km/h 63 % 0.00 in /  0 mm
04:10 31.9 °F /  -0.1 °C 20.7 °F /  -6.3 °C 30.12 in /  1019.9 hPa SW 5.6 mph /  9 km/h 13.0 mph /  20.9 km/h 63 % 0.00 in /  0 mm
04:15 31.9 °F /  -0.1 °C 20.7 °F /  -6.3 °C 30.12 in /  1019.9 hPa WSW 5.4 mph /  8.7 km/h 12.0 mph /  19.3 km/h 63 % 0.00 in /  0 mm
04:20 31.9 °F /  -0.1 °C 20.7 °F /  -6.3 °C 30.12 in /  1019.9 hPa West 3.3 mph /  5.3 km/h 8.1 mph /  13 km/h 63 % 0.00 in /  0 mm
04:25 31.9 °F /  -0.1 °C 20.7 °F /  -6.3 °C 30.12 in /  1019.9 hPa West 3.4 mph /  5.5 km/h 8.1 mph /  13 km/h 63 % 0.00 in /  0 mm
04:26 31.8 °F /  -0.1 °C 21.0 °F /  -6.1 °C 30.12 in /  1019.9 hPa West 4.3 mph /  6.9 km/h 6.9 mph /  11.1 km/h 64 % 0.00 in /  0 mm
04:31 31.8 °F /  -0.1 °C 21.0 °F /  -6.1 °C 30.13 in /  1020.2 hPa SSW 4.5 mph /  7.2 km/h 7.0 mph /  11.3 km/h 64 % 0.00 in /  0 mm
04:36 31.7 °F /  -0.2 °C 21.3 °F /  -5.9 °C 30.13 in /  1020.2 hPa West 6.8 mph /  10.9 km/h 8.1 mph /  13 km/h 65 % 0.00 in /  0 mm
04:42 31.7 °F /  -0.2 °C 20.9 °F /  -6.2 °C 30.13 in /  1020.2 hPa WSW 7.3 mph /  11.7 km/h 11.5 mph /  18.5 km/h 64 % 0.00 in /  0 mm
04:47 31.7 °F /  -0.2 °C 21.3 °F /  -5.9 °C 30.13 in /  1020.2 hPa WSW 4.6 mph /  7.4 km/h 11.0 mph /  17.7 km/h 65 % 0.00 in /  0 mm
04:52 31.7 °F /  -0.2 °C 20.9 °F /  -6.2 °C 30.14 in /  1020.5 hPa SW 5.2 mph /  8.4 km/h 10.4 mph /  16.7 km/h 64 % 0.00 in /  0 mm
04:57 31.6 °F /  -0.2 °C 21.2 °F /  -6 °C 30.14 in /  1020.5 hPa SW 7.5 mph /  12.1 km/h 10.4 mph /  16.7 km/h 65 % 0.00 in /  0 mm
05:02 31.6 °F /  -0.2 °C 21.2 °F /  -6 °C 30.14 in /  1020.5 hPa NW 8.6 mph /  13.8 km/h 13.0 mph /  20.9 km/h 65 % 0.00 in /  0 mm
05:07 31.6 °F /  -0.2 °C 20.8 °F /  -6.2 °C 30.14 in /  1020.5 hPa WSW 5.2 mph /  8.4 km/h 9.2 mph /  14.8 km/h 64 % 0.00 in /  0 mm
05:12 31.6 °F /  -0.2 °C 20.8 °F /  -6.2 °C 30.14 in /  1020.5 hPa WSW 2.7 mph /  4.3 km/h 5.8 mph /  9.3 km/h 64 % 0.00 in /  0 mm
05:17 31.5 °F /  -0.3 °C 21.1 °F /  -6.1 °C 30.15 in /  1020.9 hPa West 5.8 mph /  9.3 km/h 11.5 mph /  18.5 km/h 65 % 0.00 in /  0 mm
05:22 31.4 °F /  -0.3 °C 21.0 °F /  -6.1 °C 30.15 in /  1020.9 hPa SW 3.3 mph /  5.3 km/h 6.9 mph /  11.1 km/h 65 % 0.00 in /  0 mm
05:27 31.4 °F /  -0.3 °C 21.0 °F /  -6.1 °C 30.15 in /  1020.9 hPa WSW 3.4 mph /  5.5 km/h 6.0 mph /  9.7 km/h 65 % 0.00 in /  0 mm
05:32 31.4 °F /  -0.3 °C 21.0 °F /  -6.1 °C 30.15 in /  1020.9 hPa NW 5.5 mph /  8.9 km/h 10.4 mph /  16.7 km/h 65 % 0.00 in /  0 mm
05:38 31.3 °F /  -0.4 °C 20.9 °F /  -6.2 °C 30.15 in /  1020.9 hPa West 5.3 mph /  8.5 km/h 8.1 mph /  13 km/h 65 % 0.00 in /  0 mm
05:43 31.3 °F /  -0.4 °C 20.9 °F /  -6.2 °C 30.15 in /  1020.9 hPa West 5.2 mph /  8.4 km/h 11.5 mph /  18.5 km/h 65 % 0.00 in /  0 mm
05:48 31.3 °F /  -0.4 °C 20.9 °F /  -6.2 °C 30.15 in /  1020.9 hPa WSW 3.0 mph /  4.8 km/h 12.0 mph /  19.3 km/h 65 % 0.00 in /  0 mm
05:53 31.2 °F /  -0.4 °C 21.2 °F /  -6 °C 30.15 in /  1020.9 hPa West 7.0 mph /  11.3 km/h 12.0 mph /  19.3 km/h 66 % 0.00 in /  0 mm
05:58 31.2 °F /  -0.4 °C 21.2 °F /  -6 °C 30.15 in /  1020.9 hPa West 5.4 mph /  8.7 km/h 9.2 mph /  14.8 km/h 66 % 0.00 in /  0 mm
06:03 31.2 °F /  -0.4 °C 21.5 °F /  -5.8 °C 30.16 in /  1021.2 hPa West 6.0 mph /  9.7 km/h 12.0 mph /  19.3 km/h 67 % 0.00 in /  0 mm
06:08 31.1 °F /  -0.5 °C 21.1 °F /  -6.1 °C 30.16 in /  1021.2 hPa West 5.0 mph /  8 km/h 8.0 mph /  12.9 km/h 66 % 0.00 in /  0 mm
06:13 31.1 °F /  -0.5 °C 21.4 °F /  -5.9 °C 30.16 in /  1021.2 hPa West 3.0 mph /  4.8 km/h 12.0 mph /  19.3 km/h 67 % 0.00 in /  0 mm
06:18 31.1 °F /  -0.5 °C 21.1 °F /  -6.1 °C 30.16 in /  1021.2 hPa WNW 5.0 mph /  8 km/h 12.0 mph /  19.3 km/h 66 % 0.00 in /  0 mm
06:23 31.0 °F /  -0.6 °C 21.0 °F /  -6.1 °C 30.16 in /  1021.2 hPa West 7.0 mph /  11.3 km/h 13.0 mph /  20.9 km/h 66 % 0.00 in /  0 mm
06:28 31.0 °F /  -0.6 °C 21.0 °F /  -6.1 °C 30.16 in /  1021.2 hPa WNW 5.0 mph /  8 km/h 11.0 mph /  17.7 km/h 66 % 0.00 in /  0 mm
06:33 31.0 °F /  -0.6 °C 21.0 °F /  -6.1 °C 30.17 in /  1021.6 hPa West 5.0 mph /  8 km/h 12.0 mph /  19.3 km/h 66 % 0.00 in /  0 mm
06:38 30.9 °F /  -0.6 °C 20.9 °F /  -6.2 °C 30.17 in /  1021.6 hPa WSW 8.6 mph /  13.8 km/h 9.2 mph /  14.8 km/h 66 % 0.00 in /  0 mm
06:43 30.9 °F /  -0.6 °C 20.9 °F /  -6.2 °C 30.17 in /  1021.6 hPa West 5.0 mph /  8 km/h 9.0 mph /  14.5 km/h 66 % 0.00 in /  0 mm
06:48 30.9 °F /  -0.6 °C 21.2 °F /  -6 °C 30.17 in /  1021.6 hPa WSW 6.7 mph /  10.8 km/h 9.2 mph /  14.8 km/h 67 % 0.00 in /  0 mm
06:53 30.8 °F /  -0.7 °C 21.1 °F /  -6.1 °C 30.17 in /  1021.6 hPa West 5.0 mph /  8 km/h 14.0 mph /  22.5 km/h 67 % 0.00 in /  0 mm
06:58 30.8 °F /  -0.7 °C 20.8 °F /  -6.2 °C 30.17 in /  1021.6 hPa WSW 5.2 mph /  8.4 km/h 12.0 mph /  19.3 km/h 66 % 0.00 in /  0 mm
07:03 30.8 °F /  -0.7 °C 20.8 °F /  -6.2 °C 30.18 in /  1021.9 hPa West 4.1 mph /  6.6 km/h 8.1 mph /  13 km/h 66 % 0.00 in /  0 mm
07:04 30.8 °F /  -0.7 °C 20.8 °F /  -6.2 °C 30.18 in /  1021.9 hPa WNW 5.2 mph /  8.4 km/h 8.1 mph /  13 km/h 66 % 0.00 in /  0 mm
07:09 30.8 °F /  -0.7 °C 20.8 °F /  -6.2 °C 30.18 in /  1021.9 hPa WSW 3.5 mph /  5.6 km/h 6.9 mph /  11.1 km/h 66 % 0.00 in /  0 mm
07:14 30.7 °F /  -0.7 °C 20.7 °F /  -6.3 °C 30.18 in /  1021.9 hPa WNW 3.9 mph /  6.3 km/h 8.1 mph /  13 km/h 66 % 0.00 in /  0 mm
07:19 30.7 °F /  -0.7 °C 20.7 °F /  -6.3 °C 30.18 in /  1021.9 hPa WNW 4.3 mph /  6.9 km/h 10.4 mph /  16.7 km/h 66 % 0.00 in /  0 mm
07:24 30.8 °F /  -0.7 °C 20.8 °F /  -6.2 °C 30.18 in /  1021.9 hPa WNW 8.7 mph /  14 km/h 12.0 mph /  19.3 km/h 66 % 0.00 in /  0 mm
07:29 30.9 °F /  -0.6 °C 20.9 °F /  -6.2 °C 30.18 in /  1021.9 hPa WSW 4.2 mph /  6.8 km/h 8.1 mph /  13 km/h 66 % 0.00 in /  0 mm
07:34 31.0 °F /  -0.6 °C 21.0 °F /  -6.1 °C 30.18 in /  1021.9 hPa WNW 4.3 mph /  6.9 km/h 11.5 mph /  18.5 km/h 66 % 0.00 in /  0 mm
07:39 31.1 °F /  -0.5 °C 20.7 °F /  -6.3 °C 30.19 in /  1022.2 hPa West 3.9 mph /  6.3 km/h 6.9 mph /  11.1 km/h 65 % 0.00 in /  0 mm
07:44 31.3 °F /  -0.4 °C 20.9 °F /  -6.2 °C 30.19 in /  1022.2 hPa WNW 7.5 mph /  12.1 km/h 11.5 mph /  18.5 km/h 65 % 0.00 in /  0 mm
07:49 31.5 °F /  -0.3 °C 21.1 °F /  -6.1 °C 30.20 in /  1022.6 hPa NW 7.3 mph /  11.7 km/h 11.0 mph /  17.7 km/h 65 % 0.00 in /  0 mm
07:50 31.5 °F /  -0.3 °C 21.1 °F /  -6.1 °C 30.20 in /  1022.6 hPa WSW 7.4 mph /  11.9 km/h 12.0 mph /  19.3 km/h 65 % 0.00 in /  0 mm
07:55 31.7 °F /  -0.2 °C 21.3 °F /  -5.9 °C 30.20 in /  1022.6 hPa WSW 5.7 mph /  9.2 km/h 8.1 mph /  13 km/h 65 % 0.00 in /  0 mm
08:00 31.9 °F /  -0.1 °C 21.1 °F /  -6.1 °C 30.20 in /  1022.6 hPa WSW 5.4 mph /  8.7 km/h 8.1 mph /  13 km/h 64 % 0.00 in /  0 mm
08:05 32.0 °F /  0 °C 21.2 °F /  -6 °C 30.19 in /  1022.2 hPa WSW 7.4 mph /  11.9 km/h 11.5 mph /  18.5 km/h 64 % 0.00 in /  0 mm
08:10 32.2 °F /  0.1 °C 21.4 °F /  -5.9 °C 30.20 in /  1022.6 hPa WSW 6.1 mph /  9.8 km/h 11.5 mph /  18.5 km/h 64 % 0.00 in /  0 mm
08:15 32.5 °F /  0.3 °C 21.3 °F /  -5.9 °C 30.20 in /  1022.6 hPa West 3.2 mph /  5.1 km/h 12.7 mph /  20.4 km/h 63 % 0.00 in /  0 mm
08:20 32.8 °F /  0.4 °C 21.6 °F /  -5.8 °C 30.20 in /  1022.6 hPa SW 4.0 mph /  6.4 km/h 5.8 mph /  9.3 km/h 63 % 0.00 in /  0 mm
08:25 33.0 °F /  0.6 °C 21.4 °F /  -5.9 °C 30.20 in /  1022.6 hPa West 8.4 mph /  13.5 km/h 13.8 mph /  22.2 km/h 62 % 0.00 in /  0 mm
08:30 33.3 °F /  0.7 °C 21.7 °F /  -5.7 °C 30.21 in /  1022.9 hPa West 5.0 mph /  8 km/h 9.2 mph /  14.8 km/h 62 % 0.00 in /  0 mm
08:35 33.4 °F /  0.8 °C 21.8 °F /  -5.7 °C 30.21 in /  1022.9 hPa West 7.5 mph /  12.1 km/h 12.7 mph /  20.4 km/h 62 % 0.00 in /  0 mm
08:40 33.7 °F /  0.9 °C 22.1 °F /  -5.5 °C 30.22 in /  1023.2 hPa WNW 7.3 mph /  11.7 km/h 9.0 mph /  14.5 km/h 62 % 0.00 in /  0 mm
08:45 33.9 °F /  1.1 °C 21.9 °F /  -5.6 °C 30.22 in /  1023.2 hPa WSW 7.3 mph /  11.7 km/h 10.4 mph /  16.7 km/h 61 % 0.00 in /  0 mm
08:50 34.1 °F /  1.2 °C 21.7 °F /  -5.7 °C 30.22 in /  1023.2 hPa WNW 5.7 mph /  9.2 km/h 10.4 mph /  16.7 km/h 60 % 0.00 in /  0 mm
08:56 34.2 °F /  1.2 °C 21.4 °F /  -5.9 °C 30.22 in /  1023.2 hPa West 8.4 mph /  13.5 km/h 9.2 mph /  14.8 km/h 59 % 0.00 in /  0 mm
09:01 34.3 °F /  1.3 °C 21.8 °F /  -5.7 °C 30.22 in /  1023.2 hPa WSW 7.2 mph /  11.6 km/h 11.5 mph /  18.5 km/h 60 % 0.00 in /  0 mm
09:06 34.3 °F /  1.3 °C 21.4 °F /  -5.9 °C 30.22 in /  1023.2 hPa WSW 7.1 mph /  11.4 km/h 12.7 mph /  20.4 km/h 59 % 0.00 in /  0 mm
09:11 34.3 °F /  1.3 °C 21.8 °F /  -5.7 °C 30.22 in /  1023.2 hPa WSW 6.4 mph /  10.3 km/h 8.1 mph /  13 km/h 60 % 0.00 in /  0 mm
09:16 34.5 °F /  1.4 °C 22.0 °F /  -5.6 °C 30.22 in /  1023.2 hPa WSW 4.5 mph /  7.2 km/h 9.2 mph /  14.8 km/h 60 % 0.00 in /  0 mm
09:21 34.7 °F /  1.5 °C 22.2 °F /  -5.4 °C 30.22 in /  1023.2 hPa West 4.8 mph /  7.7 km/h 16.1 mph /  25.9 km/h 60 % 0.00 in /  0 mm
09:26 34.8 °F /  1.6 °C 22.7 °F /  -5.2 °C 30.22 in /  1023.2 hPa West 4.7 mph /  7.6 km/h 8.0 mph /  12.9 km/h 61 % 0.00 in /  0 mm
09:31 35.0 °F /  1.7 °C 22.5 °F /  -5.3 °C 30.22 in /  1023.2 hPa WSW 5.0 mph /  8 km/h 10.4 mph /  16.7 km/h 60 % 0.00 in /  0 mm
09:36 35.1 °F /  1.7 °C 22.2 °F /  -5.4 °C 30.22 in /  1023.2 hPa SW 7.9 mph /  12.7 km/h 16.0 mph /  25.7 km/h 59 % 0.00 in /  0 mm
09:41 35.3 °F /  1.8 °C 22.4 °F /  -5.3 °C 30.23 in /  1023.6 hPa SW 9.3 mph /  15 km/h 16.0 mph /  25.7 km/h 59 % 0.00 in /  0 mm
09:46 35.5 °F /  1.9 °C 23.0 °F /  -5 °C 30.22 in /  1023.2 hPa West 6.8 mph /  10.9 km/h 10.0 mph /  16.1 km/h 60 % 0.00 in /  0 mm
09:51 35.7 °F /  2.1 °C 21.9 °F /  -5.6 °C 30.23 in /  1023.6 hPa SW 8.5 mph /  13.7 km/h 13.8 mph /  22.2 km/h 57 % 0.00 in /  0 mm
09:56 35.7 °F /  2.1 °C 21.9 °F /  -5.6 °C 30.23 in /  1023.6 hPa West 9.5 mph /  15.3 km/h 13.8 mph /  22.2 km/h 57 % 0.00 in /  0 mm
10:01 35.7 °F /  2.1 °C 22.4 °F /  -5.3 °C 30.23 in /  1023.6 hPa West 4.7 mph /  7.6 km/h 9.0 mph /  14.5 km/h 58 % 0.00 in /  0 mm
10:06 36.0 °F /  2.2 °C 22.6 °F /  -5.2 °C 30.22 in /  1023.2 hPa NNW 6.9 mph /  11.1 km/h 11.5 mph /  18.5 km/h 58 % 0.00 in /  0 mm
10:11 36.0 °F /  2.2 °C 22.2 °F /  -5.4 °C 30.23 in /  1023.6 hPa West 6.5 mph /  10.5 km/h 12.0 mph /  19.3 km/h 57 % 0.00 in /  0 mm
10:17 36.1 °F /  2.3 °C 22.3 °F /  -5.4 °C 30.23 in /  1023.6 hPa WNW 4.8 mph /  7.7 km/h 11.5 mph /  18.5 km/h 57 % 0.00 in /  0 mm
10:22 36.2 °F /  2.3 °C 21.6 °F /  -5.8 °C 30.22 in /  1023.2 hPa WSW 5.6 mph /  9 km/h 11.5 mph /  18.5 km/h 55 % 0.00 in /  0 mm
10:27 36.5 °F /  2.5 °C 22.3 °F /  -5.4 °C 30.22 in /  1023.2 hPa SW 7.1 mph /  11.4 km/h 11.5 mph /  18.5 km/h 56 % 0.00 in /  0 mm
10:32 36.9 °F /  2.7 °C 22.2 °F /  -5.4 °C 30.22 in /  1023.2 hPa WNW 6.8 mph /  10.9 km/h 11.5 mph /  18.5 km/h 55 % 0.00 in /  0 mm
10:37 37.3 °F /  2.9 °C 22.6 °F /  -5.2 °C 30.22 in /  1023.2 hPa WNW 7.2 mph /  11.6 km/h 13.8 mph /  22.2 km/h 55 % 0.00 in /  0 mm
10:42 37.5 °F /  3.1 °C 22.3 °F /  -5.4 °C 30.22 in /  1023.2 hPa West 7.6 mph /  12.2 km/h 13.8 mph /  22.2 km/h 54 % 0.00 in /  0 mm
10:47 37.6 °F /  3.1 °C 22.4 °F /  -5.3 °C 30.22 in /  1023.2 hPa WSW 7.1 mph /  11.4 km/h 13.8 mph /  22.2 km/h 54 % 0.00 in /  0 mm
10:52 37.7 °F /  3.2 °C 22.1 °F /  -5.5 °C 30.22 in /  1023.2 hPa WSW 4.8 mph /  7.7 km/h 11.5 mph /  18.5 km/h 53 % 0.00 in /  0 mm
10:58 37.7 °F /  3.2 °C 22.5 °F /  -5.3 °C 30.21 in /  1022.9 hPa WNW 5.2 mph /  8.4 km/h 11.5 mph /  18.5 km/h 54 % 0.00 in /  0 mm
11:03 37.8 °F /  3.2 °C 22.2 °F /  -5.4 °C 30.21 in /  1022.9 hPa WSW 7.2 mph /  11.6 km/h 18.4 mph /  29.6 km/h 53 % 0.00 in /  0 mm
11:08 38.0 °F /  3.3 °C 22.4 °F /  -5.3 °C 30.21 in /  1022.9 hPa West 6.0 mph /  9.7 km/h 13.0 mph /  20.9 km/h 53 % 0.00 in /  0 mm
11:13 38.3 °F /  3.5 °C 22.7 °F /  -5.2 °C 30.21 in /  1022.9 hPa West 8.0 mph /  12.9 km/h 12.0 mph /  19.3 km/h 53 % 0.00 in /  0 mm
11:18 38.7 °F /  3.7 °C 22.6 °F /  -5.2 °C 30.21 in /  1022.9 hPa West 8.0 mph /  12.9 km/h 15.0 mph /  24.1 km/h 52 % 0.00 in /  0 mm
11:23 39.1 °F /  3.9 °C 22.9 °F /  -5.1 °C 30.21 in /  1022.9 hPa West 9.0 mph /  14.5 km/h 15.0 mph /  24.1 km/h 52 % 0.00 in /  0 mm
11:28 39.5 °F /  4.2 °C 22.8 °F /  -5.1 °C 30.21 in /  1022.9 hPa West 5.0 mph /  8 km/h 17.0 mph /  27.4 km/h 51 % 0.00 in /  0 mm
11:33 40.0 °F /  4.4 °C 22.8 °F /  -5.1 °C 30.21 in /  1022.9 hPa WNW 8.0 mph /  12.9 km/h 17.0 mph /  27.4 km/h 50 % 0.00 in /  0 mm
11:38 40.2 °F /  4.6 °C 22.5 °F /  -5.3 °C 30.21 in /  1022.9 hPa WNW 3.0 mph /  4.8 km/h 14.0 mph /  22.5 km/h 49 % 0.00 in /  0 mm
11:43 40.6 °F /  4.8 °C 21.9 °F /  -5.6 °C 30.20 in /  1022.6 hPa West 7.0 mph /  11.3 km/h 18.0 mph /  29 km/h 47 % 0.00 in /  0 mm
11:48 40.5 °F /  4.7 °C 22.3 °F /  -5.4 °C 30.20 in /  1022.6 hPa West 8.9 mph /  14.3 km/h 13.0 mph /  20.9 km/h 48 % 0.00 in /  0 mm
11:53 40.6 °F /  4.8 °C 21.9 °F /  -5.6 °C 30.20 in /  1022.6 hPa SW 10.0 mph /  16.1 km/h 12.7 mph /  20.4 km/h 47 % 0.00 in /  0 mm
11:58 41.0 °F /  5 °C 22.3 °F /  -5.4 °C 30.20 in /  1022.6 hPa West 5.6 mph /  9 km/h 10.4 mph /  16.7 km/h 47 % 0.00 in /  0 mm
12:03 41.1 °F /  5.1 °C 21.9 °F /  -5.6 °C 30.20 in /  1022.6 hPa WNW 7.2 mph /  11.6 km/h 13.8 mph /  22.2 km/h 46 % 0.00 in /  0 mm
12:08 41.3 °F /  5.2 °C 22.1 °F /  -5.5 °C 30.20 in /  1022.6 hPa WNW 9.0 mph /  14.5 km/h 13.8 mph /  22.2 km/h 46 % 0.00 in /  0 mm
12:13 41.5 °F /  5.3 °C 21.7 °F /  -5.7 °C 30.20 in /  1022.6 hPa WNW 5.6 mph /  9 km/h 12.7 mph /  20.4 km/h 45 % 0.00 in /  0 mm
12:18 41.7 °F /  5.4 °C 21.4 °F /  -5.9 °C 30.20 in /  1022.6 hPa West 5.4 mph /  8.7 km/h 11.5 mph /  18.5 km/h 44 % 0.00 in /  0 mm
12:23 42.0 °F /  5.6 °C 22.2 °F /  -5.4 °C 30.20 in /  1022.6 hPa NW 5.3 mph /  8.5 km/h 11.5 mph /  18.5 km/h 45 % 0.00 in /  0 mm
12:28 42.1 °F /  5.6 °C 21.7 °F /  -5.7 °C 30.20 in /  1022.6 hPa WSW 8.5 mph /  13.7 km/h 13.8 mph /  22.2 km/h 44 % 0.00 in /  0 mm
12:33 42.2 °F /  5.7 °C 21.8 °F /  -5.7 °C 30.20 in /  1022.6 hPa WNW 4.4 mph /  7.1 km/h 6.9 mph /  11.1 km/h 44 % 0.00 in /  0 mm
12:38 42.3 °F /  5.7 °C 21.9 °F /  -5.6 °C 30.20 in /  1022.6 hPa WNW 4.3 mph /  6.9 km/h 9.2 mph /  14.8 km/h 44 % 0.00 in /  0 mm
12:43 42.5 °F /  5.8 °C 21.5 °F /  -5.8 °C 30.19 in /  1022.2 hPa West 2.0 mph /  3.2 km/h 6.9 mph /  11.1 km/h 43 % 0.00 in /  0 mm
12:48 42.7 °F /  5.9 °C 22.8 °F /  -5.1 °C 30.19 in /  1022.2 hPa WNW 5.6 mph /  9 km/h 8.1 mph /  13 km/h 45 % 0.00 in /  0 mm
12:53 42.7 °F /  5.9 °C 21.2 °F /  -6 °C 30.19 in /  1022.2 hPa NW 9.5 mph /  15.3 km/h 12.7 mph /  20.4 km/h 42 % 0.00 in /  0 mm
12:58 42.5 °F /  5.8 °C 21.5 °F /  -5.8 °C 30.19 in /  1022.2 hPa West 4.8 mph /  7.7 km/h 7.0 mph /  11.3 km/h 43 % 0.00 in /  0 mm
13:03 42.6 °F /  5.9 °C 21.1 °F /  -6.1 °C 30.18 in /  1021.9 hPa NE 6.5 mph /  10.5 km/h 11.5 mph /  18.5 km/h 42 % 0.00 in /  0 mm
13:08 42.8 °F /  6 °C 22.4 °F /  -5.3 °C 30.18 in /  1021.9 hPa WNW 3.6 mph /  5.8 km/h 6.9 mph /  11.1 km/h 44 % 0.00 in /  0 mm
13:13 43.1 °F /  6.2 °C 21.0 °F /  -6.1 °C 30.18 in /  1021.9 hPa WNW 6.6 mph /  10.6 km/h 10.4 mph /  16.7 km/h 41 % 0.00 in /  0 mm
13:18 43.2 °F /  6.2 °C 21.1 °F /  -6.1 °C 30.18 in /  1021.9 hPa NW 8.0 mph /  12.9 km/h 15.0 mph /  24.1 km/h 41 % 0.00 in /  0 mm
13:23 43.1 °F /  6.2 °C 21.0 °F /  -6.1 °C 30.18 in /  1021.9 hPa West 5.0 mph /  8 km/h 8.1 mph /  13 km/h 41 % 0.00 in /  0 mm
13:28 43.3 °F /  6.3 °C 21.7 °F /  -5.7 °C 30.18 in /  1021.9 hPa WSW 6.7 mph /  10.8 km/h 6.7 mph /  10.8 km/h 42 % 0.00 in /  0 mm
13:33 43.3 °F /  6.3 °C 21.1 °F /  -6.1 °C 30.18 in /  1021.9 hPa WSW 4.9 mph /  7.9 km/h 10.4 mph /  16.7 km/h 41 % 0.00 in /  0 mm
13:39 43.3 °F /  6.3 °C 21.1 °F /  -6.1 °C 30.18 in /  1021.9 hPa WNW 9.7 mph /  15.6 km/h 11.5 mph /  18.5 km/h 41 % 0.00 in /  0 mm
13:44 43.1 °F /  6.2 °C 20.4 °F /  -6.4 °C 30.18 in /  1021.9 hPa West 6.3 mph /  10.1 km/h 10.4 mph /  16.7 km/h 40 % 0.00 in /  0 mm
13:49 43.3 °F /  6.3 °C 21.7 °F /  -5.7 °C 30.18 in /  1021.9 hPa WNW 2.8 mph /  4.5 km/h 11.5 mph /  18.5 km/h 42 % 0.00 in /  0 mm
13:54 43.7 °F /  6.5 °C 22.6 °F /  -5.2 °C 30.17 in /  1021.6 hPa NW 2.9 mph /  4.7 km/h 7.0 mph /  11.3 km/h 43 % 0.00 in /  0 mm
13:59 44.0 °F /  6.7 °C 20.6 °F /  -6.3 °C 30.17 in /  1021.6 hPa West 7.9 mph /  12.7 km/h 15.0 mph /  24.1 km/h 39 % 0.00 in /  0 mm
14:04 43.9 °F /  6.6 °C 21.1 °F /  -6.1 °C 30.17 in /  1021.6 hPa WNW 2.9 mph /  4.7 km/h 9.2 mph /  14.8 km/h 40 % 0.00 in /  0 mm
14:09 44.1 °F /  6.7 °C 21.3 °F /  -5.9 °C 30.17 in /  1021.6 hPa NW 6.4 mph /  10.3 km/h 11.5 mph /  18.5 km/h 40 % 0.00 in /  0 mm
14:14 44.2 °F /  6.8 °C 20.8 °F /  -6.2 °C 30.16 in /  1021.2 hPa WSW 4.5 mph /  7.2 km/h 9.2 mph /  14.8 km/h 39 % 0.00 in /  0 mm
14:19 44.3 °F /  6.8 °C 21.5 °F /  -5.8 °C 30.16 in /  1021.2 hPa WNW 5.4 mph /  8.7 km/h 8.1 mph /  13 km/h 40 % 0.00 in /  0 mm
14:24 44.5 °F /  6.9 °C 20.4 °F /  -6.4 °C 30.16 in /  1021.2 hPa West 4.1 mph /  6.6 km/h 11.5 mph /  18.5 km/h 38 % 0.00 in /  0 mm
14:29 44.6 °F /  7 °C 20.5 °F /  -6.4 °C 30.16 in /  1021.2 hPa WNW 6.8 mph /  10.9 km/h 13.0 mph /  20.9 km/h 38 % 0.00 in /  0 mm
14:34 44.6 °F /  7 °C 21.1 °F /  -6.1 °C 30.16 in /  1021.2 hPa WNW 5.7 mph /  9.2 km/h 11.5 mph /  18.5 km/h 39 % 0.00 in /  0 mm
14:39 44.8 °F /  7.1 °C 21.9 °F /  -5.6 °C 30.15 in /  1020.9 hPa WNW 2.7 mph /  4.3 km/h 6.0 mph /  9.7 km/h 40 % 0.00 in /  0 mm
14:44 45.1 °F /  7.3 °C 21.0 °F /  -6.1 °C 30.15 in /  1020.9 hPa WNW 5.3 mph /  8.5 km/h 9.0 mph /  14.5 km/h 38 % 0.00 in /  0 mm
14:49 45.0 °F /  7.2 °C 20.3 °F /  -6.5 °C 30.15 in /  1020.9 hPa WSW 7.8 mph /  12.6 km/h 11.5 mph /  18.5 km/h 37 % 0.00 in /  0 mm
14:54 45.0 °F /  7.2 °C 20.9 °F /  -6.2 °C 30.14 in /  1020.5 hPa WNW 5.9 mph /  9.5 km/h 12.0 mph /  19.3 km/h 38 % 0.00 in /  0 mm
14:59 45.0 °F /  7.2 °C 19.6 °F /  -6.9 °C 30.15 in /  1020.9 hPa WNW 7.7 mph /  12.4 km/h 15.0 mph /  24.1 km/h 36 % 0.00 in /  0 mm
15:04 45.0 °F /  7.2 °C 20.3 °F /  -6.5 °C 30.14 in /  1020.5 hPa WNW 7.6 mph /  12.2 km/h 10.4 mph /  16.7 km/h 37 % 0.00 in /  0 mm
15:09 45.1 °F /  7.3 °C 19.7 °F /  -6.8 °C 30.14 in /  1020.5 hPa NW 7.7 mph /  12.4 km/h 9.2 mph /  14.8 km/h 36 % 0.00 in /  0 mm
15:14 45.2 °F /  7.3 °C 19.8 °F /  -6.8 °C 30.14 in /  1020.5 hPa West 4.2 mph /  6.8 km/h 8.1 mph /  13 km/h 36 % 0.00 in /  0 mm
15:19 45.3 °F /  7.4 °C 19.9 °F /  -6.7 °C 30.13 in /  1020.2 hPa WNW 5.1 mph /  8.2 km/h 9.2 mph /  14.8 km/h 36 % 0.00 in /  0 mm
15:25 45.4 °F /  7.4 °C 20.0 °F /  -6.7 °C 30.13 in /  1020.2 hPa SW 5.2 mph /  8.4 km/h 11.5 mph /  18.5 km/h 36 % 0.00 in /  0 mm
15:30 45.5 °F /  7.5 °C 20.1 °F /  -6.6 °C 30.13 in /  1020.2 hPa WSW 7.7 mph /  12.4 km/h 7.7 mph /  12.4 km/h 36 % 0.00 in /  0 mm
15:35 45.5 °F /  7.5 °C 20.1 °F /  -6.6 °C 30.13 in /  1020.2 hPa WSW 6.6 mph /  10.6 km/h 9.0 mph /  14.5 km/h 36 % 0.00 in /  0 mm
15:40 45.6 °F /  7.6 °C 19.5 °F /  -6.9 °C 30.13 in /  1020.2 hPa WSW 4.9 mph /  7.9 km/h 10.4 mph /  16.7 km/h 35 % 0.00 in /  0 mm
15:45 45.5 °F /  7.5 °C 19.4 °F /  -7 °C 30.13 in /  1020.2 hPa West 6.2 mph /  10 km/h 9.2 mph /  14.8 km/h 35 % 0.00 in /  0 mm
15:50 45.5 °F /  7.5 °C 20.1 °F /  -6.6 °C 30.13 in /  1020.2 hPa NW 4.3 mph /  6.9 km/h 9.2 mph /  14.8 km/h 36 % 0.00 in /  0 mm
15:55 45.5 °F /  7.5 °C 19.4 °F /  -7 °C 30.13 in /  1020.2 hPa West 3.2 mph /  5.1 km/h 6.9 mph /  11.1 km/h 35 % 0.00 in /  0 mm
16:00 45.5 °F /  7.5 °C 19.4 °F /  -7 °C 30.13 in /  1020.2 hPa WSW 5.3 mph /  8.5 km/h 8.1 mph /  13 km/h 35 % 0.00 in /  0 mm
16:05 45.5 °F /  7.5 °C 19.4 °F /  -7 °C 30.13 in /  1020.2 hPa WNW 4.7 mph /  7.6 km/h 13.8 mph /  22.2 km/h 35 % 0.00 in /  0 mm
16:10 45.6 °F /  7.6 °C 19.5 °F /  -6.9 °C 30.13 in /  1020.2 hPa West 5.4 mph /  8.7 km/h 11.0 mph /  17.7 km/h 35 % 0.00 in /  0 mm
16:15 45.6 °F /  7.6 °C 18.8 °F /  -7.3 °C 30.13 in /  1020.2 hPa SW 7.0 mph /  11.3 km/h 11.5 mph /  18.5 km/h 34 % 0.00 in /  0 mm
16:20 45.5 °F /  7.5 °C 19.4 °F /  -7 °C 30.13 in /  1020.2 hPa WSW 6.8 mph /  10.9 km/h 10.4 mph /  16.7 km/h 35 % 0.00 in /  0 mm
16:25 45.6 °F /  7.6 °C 18.8 °F /  -7.3 °C 30.13 in /  1020.2 hPa WSW 4.1 mph /  6.6 km/h 8.1 mph /  13 km/h 34 % 0.00 in /  0 mm
16:30 45.6 °F /  7.6 °C 19.5 °F /  -6.9 °C 30.13 in /  1020.2 hPa West 5.9 mph /  9.5 km/h 12.7 mph /  20.4 km/h 35 % 0.00 in /  0 mm
16:35 45.6 °F /  7.6 °C 19.5 °F /  -6.9 °C 30.13 in /  1020.2 hPa SW 3.4 mph /  5.5 km/h 4.0 mph /  6.4 km/h 35 % 0.00 in /  0 mm
16:40 45.5 °F /  7.5 °C 20.7 °F /  -6.3 °C 30.13 in /  1020.2 hPa SW 4.4 mph /  7.1 km/h 7.0 mph /  11.3 km/h 37 % 0.00 in /  0 mm
16:45 45.4 °F /  7.4 °C 20.0 °F /  -6.7 °C 30.13 in /  1020.2 hPa WSW 6.3 mph /  10.1 km/h 10.4 mph /  16.7 km/h 36 % 0.00 in /  0 mm
16:50 45.3 °F /  7.4 °C 20.5 °F /  -6.4 °C 30.13 in /  1020.2 hPa West 1.8 mph /  2.9 km/h 3.5 mph /  5.6 km/h 37 % 0.00 in /  0 mm
16:55 45.2 °F /  7.3 °C 19.1 °F /  -7.2 °C 30.13 in /  1020.2 hPa WSW 6.1 mph /  9.8 km/h 8.1 mph /  13 km/h 35 % 0.00 in /  0 mm
17:00 45.1 °F /  7.3 °C 19.0 °F /  -7.2 °C 30.13 in /  1020.2 hPa West 5.3 mph /  8.5 km/h 11.5 mph /  18.5 km/h 35 % 0.00 in /  0 mm
17:06 44.9 °F /  7.2 °C 18.2 °F /  -7.7 °C 30.13 in /  1020.2 hPa NW 8.3 mph /  13.4 km/h 11.0 mph /  17.7 km/h 34 % 0.00 in /  0 mm
17:11 44.7 °F /  7.1 °C 18.0 °F /  -7.8 °C 30.13 in /  1020.2 hPa WSW 7.1 mph /  11.4 km/h 10.4 mph /  16.7 km/h 34 % 0.00 in /  0 mm
17:16 44.6 °F /  7 °C 17.9 °F /  -7.8 °C 30.13 in /  1020.2 hPa WSW 6.6 mph /  10.6 km/h 8.1 mph /  13 km/h 34 % 0.00 in /  0 mm
17:21 44.6 °F /  7 °C 18.6 °F /  -7.4 °C 30.13 in /  1020.2 hPa West 5.9 mph /  9.5 km/h 7.0 mph /  11.3 km/h 35 % 0.00 in /  0 mm
17:26 44.5 °F /  6.9 °C 18.5 °F /  -7.5 °C 30.13 in /  1020.2 hPa West 4.3 mph /  6.9 km/h 6.9 mph /  11.1 km/h 35 % 0.00 in /  0 mm
17:31 44.5 °F /  6.9 °C 17.8 °F /  -7.9 °C 30.13 in /  1020.2 hPa WNW 6.2 mph /  10 km/h 10.4 mph /  16.7 km/h 34 % 0.00 in /  0 mm
17:36 44.5 °F /  6.9 °C 18.5 °F /  -7.5 °C 30.13 in /  1020.2 hPa WNW 1.6 mph /  2.6 km/h 4.6 mph /  7.4 km/h 35 % 0.00 in /  0 mm
17:41 44.5 °F /  6.9 °C 18.5 °F /  -7.5 °C 30.14 in /  1020.5 hPa WNW 2.0 mph /  3.2 km/h 3.5 mph /  5.6 km/h 35 % 0.00 in /  0 mm
17:46 44.4 °F /  6.9 °C 19.1 °F /  -7.2 °C 30.13 in /  1020.2 hPa WNW 1.2 mph /  1.9 km/h 5.8 mph /  9.3 km/h 36 % 0.00 in /  0 mm
17:51 44.3 °F /  6.8 °C 18.3 °F /  -7.6 °C 30.13 in /  1020.2 hPa WSW 4.9 mph /  7.9 km/h 9.0 mph /  14.5 km/h 35 % 0.00 in /  0 mm
17:56 44.3 °F /  6.8 °C 19.0 °F /  -7.2 °C 30.13 in /  1020.2 hPa WSW 2.7 mph /  4.3 km/h 4.6 mph /  7.4 km/h 36 % 0.00 in /  0 mm
18:01 44.2 °F /  6.8 °C 18.9 °F /  -7.3 °C 30.13 in /  1020.2 hPa WSW 3.9 mph /  6.3 km/h 6.0 mph /  9.7 km/h 36 % 0.00 in /  0 mm
18:06 44.1 °F /  6.7 °C 18.2 °F /  -7.7 °C 30.13 in /  1020.2 hPa WSW 3.3 mph /  5.3 km/h 7.0 mph /  11.3 km/h 35 % 0.00 in /  0 mm
18:11 44.1 °F /  6.7 °C 18.2 °F /  -7.7 °C 30.13 in /  1020.2 hPa WSW 3.8 mph /  6.1 km/h 6.9 mph /  11.1 km/h 35 % 0.00 in /  0 mm
18:16 44.0 °F /  6.7 °C 18.1 °F /  -7.7 °C 30.13 in /  1020.2 hPa WSW 3.4 mph /  5.5 km/h 4.6 mph /  7.4 km/h 35 % 0.00 in /  0 mm
18:21 44.0 °F /  6.7 °C 18.7 °F /  -7.4 °C 30.13 in /  1020.2 hPa WSW 1.3 mph /  2.1 km/h 4.0 mph /  6.4 km/h 36 % 0.00 in /  0 mm
18:26 43.8 °F /  6.6 °C 18.5 °F /  -7.5 °C 30.13 in /  1020.2 hPa West 0.8 mph /  1.3 km/h 2.0 mph /  3.2 km/h 36 % 0.00 in /  0 mm
18:31 43.8 °F /  6.6 °C 19.2 °F /  -7.1 °C 30.13 in /  1020.2 hPa West 0.9 mph /  1.4 km/h 5.0 mph /  8 km/h 37 % 0.00 in /  0 mm
18:36 43.6 °F /  6.4 °C 19.6 °F /  -6.9 °C 30.14 in /  1020.5 hPa West 0.8 mph /  1.3 km/h 3.5 mph /  5.6 km/h 38 % 0.00 in /  0 mm
18:41 43.5 °F /  6.4 °C 19.5 °F /  -6.9 °C 30.14 in /  1020.5 hPa West 2.8 mph /  4.5 km/h 3.5 mph /  5.6 km/h 38 % 0.00 in /  0 mm
18:46 43.3 °F /  6.3 °C 19.4 °F /  -7 °C 30.14 in /  1020.5 hPa West 0.9 mph /  1.4 km/h 2.3 mph /  3.7 km/h 38 % 0.00 in /  0 mm
18:52 43.2 °F /  6.2 °C 19.3 °F /  -7.1 °C 30.14 in /  1020.5 hPa West 0.4 mph /  0.6 km/h 2.3 mph /  3.7 km/h 38 % 0.00 in /  0 mm
18:57 43.0 °F /  6.1 °C 19.1 °F /  -7.2 °C 30.14 in /  1020.5 hPa Calm   1.2 mph /  1.9 km/h 38 % 0.00 in /  0 mm
19:02 42.8 °F /  6 °C 18.9 °F /  -7.3 °C 30.14 in /  1020.5 hPa Calm   1.2 mph /  1.9 km/h 38 % 0.00 in /  0 mm
19:07 42.6 °F /  5.9 °C 18.7 °F /  -7.4 °C 30.14 in /  1020.5 hPa Calm     38 % 0.00 in /  0 mm
19:12 42.3 °F /  5.7 °C 19.7 °F /  -6.8 °C 30.14 in /  1020.5 hPa Calm   1.2 mph /  1.9 km/h 40 % 0.00 in /  0 mm
19:17 42.0 °F /  5.6 °C 19.4 °F /  -7 °C 30.14 in /  1020.5 hPa West 0.2 mph /  0.3 km/h 1.2 mph /  1.9 km/h 40 % 0.00 in /  0 mm
19:22 41.6 °F /  5.3 °C 19.0 °F /  -7.2 °C 30.14 in /  1020.5 hPa West 0.9 mph /  1.4 km/h 2.3 mph /  3.7 km/h 40 % 0.00 in /  0 mm
19:27 41.3 °F /  5.2 °C 19.3 °F /  -7.1 °C 30.14 in /  1020.5 hPa West 0.2 mph /  0.3 km/h 1.2 mph /  1.9 km/h 41 % 0.00 in /  0 mm
19:32 40.9 °F /  4.9 °C 19.0 °F /  -7.2 °C 30.15 in /  1020.9 hPa Calm     41 % 0.00 in /  0 mm
19:37 40.5 °F /  4.7 °C 19.7 °F /  -6.8 °C 30.15 in /  1020.9 hPa Calm   1.2 mph /  1.9 km/h 43 % 0.00 in /  0 mm
19:42 40.1 °F /  4.5 °C 19.9 °F /  -6.7 °C 30.15 in /  1020.9 hPa Calm     44 % 0.00 in /  0 mm
19:47 39.8 °F /  4.3 °C 21.2 °F /  -6 °C 30.15 in /  1020.9 hPa West 0.1 mph /  0.2 km/h 1.2 mph /  1.9 km/h 47 % 0.00 in /  0 mm
19:52 39.3 °F /  4.1 °C 20.7 °F /  -6.3 °C 30.15 in /  1020.9 hPa SW 1.7 mph /  2.7 km/h 4.0 mph /  6.4 km/h 47 % 0.00 in /  0 mm
19:57 38.9 °F /  3.8 °C 20.4 °F /  -6.4 °C 30.15 in /  1020.9 hPa SW 0.9 mph /  1.4 km/h 2.3 mph /  3.7 km/h 47 % 0.00 in /  0 mm
20:02 38.6 °F /  3.7 °C 20.1 °F /  -6.6 °C 30.16 in /  1021.2 hPa SW 0.1 mph /  0.2 km/h 1.2 mph /  1.9 km/h 47 % 0.00 in /  0 mm
20:07 38.4 °F /  3.6 °C 20.4 °F /  -6.4 °C 30.16 in /  1021.2 hPa Calm     48 % 0.00 in /  0 mm
20:12 38.1 °F /  3.4 °C 20.1 °F /  -6.6 °C 30.16 in /  1021.2 hPa SW 0.1 mph /  0.2 km/h 1.2 mph /  1.9 km/h 48 % 0.00 in /  0 mm
20:17 37.9 °F /  3.3 °C 19.9 °F /  -6.7 °C 30.16 in /  1021.2 hPa Calm     48 % 0.00 in /  0 mm
20:22 37.7 °F /  3.2 °C 20.2 °F /  -6.6 °C 30.17 in /  1021.6 hPa WSW 1.2 mph /  1.9 km/h 3.0 mph /  4.8 km/h 49 % 0.00 in /  0 mm
20:27 37.5 °F /  3.1 °C 20.5 °F /  -6.4 °C 30.17 in /  1021.6 hPa WSW 1.1 mph /  1.8 km/h 4.0 mph /  6.4 km/h 50 % 0.00 in /  0 mm
20:32 37.4 °F /  3 °C 21.4 °F /  -5.9 °C 30.17 in /  1021.6 hPa SSW 2.5 mph /  4 km/h 4.0 mph /  6.4 km/h 52 % 0.00 in /  0 mm
20:38 37.2 °F /  2.9 °C 21.2 °F /  -6 °C 30.17 in /  1021.6 hPa SW 3.8 mph /  6.1 km/h 5.8 mph /  9.3 km/h 52 % 0.00 in /  0 mm
20:43 37.1 °F /  2.8 °C 21.1 °F /  -6.1 °C 30.17 in /  1021.6 hPa SW 2.4 mph /  3.9 km/h 4.6 mph /  7.4 km/h 52 % 0.00 in /  0 mm
20:48 37.1 °F /  2.8 °C 21.1 °F /  -6.1 °C 30.18 in /  1021.9 hPa SW 0.5 mph /  0.8 km/h 3.5 mph /  5.6 km/h 52 % 0.00 in /  0 mm
20:52 37.0 °F /  2.8 °C 20.5 °F /  -6.4 °C 30.18 in /  1021.9 hPa SW 0.4 mph /  0.6 km/h 1.2 mph /  1.9 km/h 51 % 0.00 in /  0 mm
20:58 37.1 °F /  2.8 °C 21.5 °F /  -5.8 °C 30.17 in /  1021.6 hPa WSW 3.0 mph /  4.8 km/h 4.6 mph /  7.4 km/h 53 % 0.00 in /  0 mm
21:03 37.0 °F /  2.8 °C 20.5 °F /  -6.4 °C 30.18 in /  1021.9 hPa WSW 1.0 mph /  1.6 km/h 6.0 mph /  9.7 km/h 51 % 0.00 in /  0 mm
21:08 37.0 °F /  2.8 °C 20.5 °F /  -6.4 °C 30.18 in /  1021.9 hPa WSW 3.0 mph /  4.8 km/h 5.8 mph /  9.3 km/h 51 % 0.00 in /  0 mm
21:13 37.0 °F /  2.8 °C 20.5 °F /  -6.4 °C 30.18 in /  1021.9 hPa SW 1.2 mph /  1.9 km/h 2.3 mph /  3.7 km/h 51 % 0.00 in /  0 mm
21:18 37.0 °F /  2.8 °C 20.5 °F /  -6.4 °C 30.18 in /  1021.9 hPa SW 1.6 mph /  2.6 km/h 3.5 mph /  5.6 km/h 51 % 0.00 in /  0 mm
21:23 37.1 °F /  2.8 °C 20.6 °F /  -6.3 °C 30.18 in /  1021.9 hPa WSW 2.5 mph /  4 km/h 5.0 mph /  8 km/h 51 % 0.00 in /  0 mm
21:28 37.0 °F /  2.8 °C 20.5 °F /  -6.4 °C 30.18 in /  1021.9 hPa SW 2.9 mph /  4.7 km/h 8.1 mph /  13 km/h 51 % 0.00 in /  0 mm
21:33 37.0 °F /  2.8 °C 20.5 °F /  -6.4 °C 30.18 in /  1021.9 hPa SW 1.1 mph /  1.8 km/h 3.5 mph /  5.6 km/h 51 % 0.00 in /  0 mm
21:38 36.9 °F /  2.7 °C 20.4 °F /  -6.4 °C 30.18 in /  1021.9 hPa SW 0.1 mph /  0.2 km/h 1.2 mph /  1.9 km/h 51 % 0.00 in /  0 mm
21:43 36.9 °F /  2.7 °C 20.4 °F /  -6.4 °C 30.18 in /  1021.9 hPa SW 1.0 mph /  1.6 km/h 7.0 mph /  11.3 km/h 51 % 0.00 in /  0 mm
21:44 36.8 °F /  2.7 °C 20.8 °F /  -6.2 °C 30.18 in /  1021.9 hPa SW 0.5 mph /  0.8 km/h 1.2 mph /  1.9 km/h 52 % 0.00 in /  0 mm
21:49 36.7 °F /  2.6 °C 20.3 °F /  -6.5 °C 30.18 in /  1021.9 hPa WSW 2.2 mph /  3.5 km/h 6.0 mph /  9.7 km/h 51 % 0.00 in /  0 mm
21:54 36.6 °F /  2.6 °C 20.2 °F /  -6.6 °C 30.18 in /  1021.9 hPa SW 2.2 mph /  3.5 km/h 3.5 mph /  5.6 km/h 51 % 0.00 in /  0 mm
21:59 36.5 °F /  2.5 °C 20.1 °F /  -6.6 °C 30.19 in /  1022.2 hPa SSW 0.4 mph /  0.6 km/h 2.3 mph /  3.7 km/h 51 % 0.00 in /  0 mm
22:04 36.5 °F /  2.5 °C 20.1 °F /  -6.6 °C 30.19 in /  1022.2 hPa SW 2.2 mph /  3.5 km/h 3.0 mph /  4.8 km/h 51 % 0.00 in /  0 mm
22:09 36.5 °F /  2.5 °C 19.6 °F /  -6.9 °C 30.18 in /  1021.9 hPa WSW 3.0 mph /  4.8 km/h 4.0 mph /  6.4 km/h 50 % 0.00 in /  0 mm
22:15 36.5 °F /  2.5 °C 19.6 °F /  -6.9 °C 30.19 in /  1022.2 hPa SW 2.9 mph /  4.7 km/h 5.8 mph /  9.3 km/h 50 % 0.00 in /  0 mm
22:20 36.5 °F /  2.5 °C 20.1 °F /  -6.6 °C 30.19 in /  1022.2 hPa WSW 1.6 mph /  2.6 km/h 3.5 mph /  5.6 km/h 51 % 0.00 in /  0 mm
22:25 36.5 °F /  2.5 °C 20.1 °F /  -6.6 °C 30.19 in /  1022.2 hPa WSW 0.2 mph /  0.3 km/h 2.3 mph /  3.7 km/h 51 % 0.00 in /  0 mm
22:30 36.5 °F /  2.5 °C 20.1 °F /  -6.6 °C 30.19 in /  1022.2 hPa WSW 1.2 mph /  1.9 km/h 2.3 mph /  3.7 km/h 51 % 0.00 in /  0 mm
22:35 36.5 °F /  2.5 °C 20.1 °F /  -6.6 °C 30.19 in /  1022.2 hPa WSW 3.1 mph /  5 km/h 4.6 mph /  7.4 km/h 51 % 0.00 in /  0 mm
22:40 36.4 °F /  2.4 °C 20.0 °F /  -6.7 °C 30.19 in /  1022.2 hPa SW 0.6 mph /  1 km/h 3.5 mph /  5.6 km/h 51 % 0.00 in /  0 mm
22:45 36.4 °F /  2.4 °C 20.0 °F /  -6.7 °C 30.19 in /  1022.2 hPa West 0.5 mph /  0.8 km/h 2.0 mph /  3.2 km/h 51 % 0.00 in /  0 mm
22:50 36.3 °F /  2.4 °C 20.3 °F /  -6.5 °C 30.19 in /  1022.2 hPa West 1.2 mph /  1.9 km/h 2.3 mph /  3.7 km/h 52 % 0.00 in /  0 mm
22:55 36.2 °F /  2.3 °C 20.2 °F /  -6.6 °C 30.19 in /  1022.2 hPa SW 1.6 mph /  2.6 km/h 2.3 mph /  3.7 km/h 52 % 0.00 in /  0 mm
23:00 36.1 °F /  2.3 °C 20.2 °F /  -6.6 °C 30.19 in /  1022.2 hPa SW 1.5 mph /  2.4 km/h 2.3 mph /  3.7 km/h 52 % 0.00 in /  0 mm
23:05 36.0 °F /  2.2 °C 20.5 °F /  -6.4 °C 30.19 in /  1022.2 hPa Calm     53 % 0.00 in /  0 mm
23:10 35.9 °F /  2.2 °C 20.4 °F /  -6.4 °C 30.19 in /  1022.2 hPa SW 0.8 mph /  1.3 km/h 2.3 mph /  3.7 km/h 53 % 0.00 in /  0 mm
23:15 35.8 °F /  2.1 °C 19.9 °F /  -6.7 °C 30.19 in /  1022.2 hPa SW 1.6 mph /  2.6 km/h 4.0 mph /  6.4 km/h 52 % 0.00 in /  0 mm
23:20 35.7 °F /  2.1 °C 20.2 °F /  -6.6 °C 30.19 in /  1022.2 hPa SW 1.3 mph /  2.1 km/h 3.5 mph /  5.6 km/h 53 % 0.00 in /  0 mm
23:25 35.6 °F /  2 °C 20.1 °F /  -6.6 °C 30.19 in /  1022.2 hPa SW 1.5 mph /  2.4 km/h 3.0 mph /  4.8 km/h 53 % 0.00 in /  0 mm
23:30 35.4 °F /  1.9 °C 19.9 °F /  -6.7 °C 30.19 in /  1022.2 hPa WSW 1.3 mph /  2.1 km/h 3.5 mph /  5.6 km/h 53 % 0.00 in /  0 mm
23:35 35.4 °F /  1.9 °C 20.4 °F /  -6.4 °C 30.20 in /  1022.6 hPa SW 2.3 mph /  3.7 km/h 3.5 mph /  5.6 km/h 54 % 0.00 in /  0 mm
23:40 35.3 °F /  1.8 °C 20.7 °F /  -6.3 °C 30.20 in /  1022.6 hPa SW 1.8 mph /  2.9 km/h 4.6 mph /  7.4 km/h 55 % 0.00 in /  0 mm
23:45 35.2 °F /  1.8 °C 20.6 °F /  -6.3 °C 30.20 in /  1022.6 hPa SW 3.1 mph /  5 km/h 5.8 mph /  9.3 km/h 55 % 0.00 in /  0 mm
23:50 35.1 °F /  1.7 °C 20.5 °F /  -6.4 °C 30.20 in /  1022.6 hPa SW 1.0 mph /  1.6 km/h 3.5 mph /  5.6 km/h 55 % 0.00 in /  0 mm
23:56 35.1 °F /  1.7 °C 20.5 °F /  -6.4 °C 30.20 in /  1022.6 hPa WSW 2.5 mph /  4 km/h 5.0 mph /  8 km/h 55 % 0.00 in /  0 mm
Crab Meadow Weather
Compliments of Weather Underground - 3 mb

Script developed by  Jim McMurry - jmcmurry@mwt.net Adapted for the template by  Wim van der Kuil - Leuven-Template.eu

Recycling: Americans throw away 25,000,000,000 Styrofoam coffee cups every year.